createdAt,value
2022-10-30T00:01:20.291Z,84.16
2022-10-30T00:06:51.901Z,84.94
2022-10-30T00:12:25.640Z,84.52
2022-10-30T00:17:57.531Z,84.87
2022-10-30T00:23:28.867Z,85.27
2022-10-30T00:29:00.324Z,85.72
2022-10-30T00:34:32.431Z,85.55
2022-10-30T00:40:04.014Z,86.03
2022-10-30T00:45:35.852Z,86.64
2022-10-30T00:51:07.835Z,88.20
2022-10-30T00:56:39.471Z,88.31
2022-10-30T01:02:11.411Z,88.22
2022-10-30T01:07:43.259Z,87.71
2022-10-30T01:13:14.916Z,87.40
2022-10-30T01:18:46.872Z,86.67
2022-10-30T01:24:18.279Z,87.17
2022-10-30T01:29:50.012Z,86.72
2022-10-30T01:35:21.672Z,85.00
2022-10-30T01:40:53.057Z,86.12
2022-10-30T01:46:24.542Z,86.19
2022-10-30T01:51:56.620Z,85.90
2022-10-30T01:57:28.558Z,86.38
2022-10-30T02:03:00.692Z,86.59
2022-10-30T02:08:32.058Z,86.50
2022-10-30T02:14:03.825Z,85.95
2022-10-30T02:19:35.703Z,86.58
2022-10-30T02:25:07.918Z,86.89
2022-10-30T02:30:39.582Z,87.18
2022-10-30T02:36:11.936Z,82.85
2022-10-30T02:41:43.877Z,86.81
2022-10-30T02:47:15.902Z,86.30
2022-10-30T02:52:47.909Z,85.66
2022-10-30T02:58:20.119Z,86.89
2022-10-30T03:03:51.739Z,86.86
2022-10-30T03:09:23.689Z,87.27
2022-10-30T03:14:58.221Z,87.27
2022-10-30T03:20:30.056Z,87.30
2022-10-30T03:26:01.927Z,87.82
2022-10-30T03:31:33.721Z,87.21
2022-10-30T03:37:05.769Z,87.02
2022-10-30T03:42:37.818Z,87.54
2022-10-30T03:53:41.246Z,88.06
2022-10-30T03:59:12.946Z,87.88
2022-10-30T04:04:44.824Z,88.43
2022-10-30T04:10:20.952Z,88.09
2022-10-30T04:15:55.744Z,87.96
2022-10-30T04:21:20.263Z,85.06
2022-10-30T04:26:52.122Z,85.28
2022-10-30T04:32:25.687Z,85.73
2022-10-30T04:37:57.645Z,86.13
2022-10-30T04:43:29.113Z,86.42
2022-10-30T04:49:01.094Z,87.06
2022-10-30T04:54:32.733Z,87.59
2022-10-30T05:00:04.548Z,87.43
2022-10-30T05:05:36.253Z,87.38
2022-10-30T05:11:08.029Z,87.62
2022-10-30T05:16:39.848Z,87.64
2022-10-30T05:22:11.704Z,87.34
2022-10-30T05:27:43.606Z,88.21
2022-10-30T05:33:17.196Z,87.95
2022-10-30T05:38:48.907Z,87.13
2022-10-30T05:49:52.403Z,88.00
2022-10-30T05:55:24.205Z,88.34
2022-10-30T06:00:55.951Z,88.62
2022-10-30T06:03:07.286Z,88.47
2022-10-30T06:14:12.609Z,89.38
2022-10-30T06:19:44.055Z,88.60
2022-10-30T06:25:21.920Z,88.21
2022-10-30T06:30:53.656Z,88.29
2022-10-30T06:36:25.471Z,88.25
2022-10-30T06:41:57.367Z,87.61
2022-10-30T06:47:28.945Z,86.52
2022-10-30T06:53:00.811Z,85.13
2022-10-30T06:58:32.545Z,83.71
2022-10-30T07:04:04.349Z,82.44
2022-10-30T07:09:35.739Z,80.55
2022-10-30T07:15:08.298Z,79.26
2022-10-30T07:20:40.011Z,76.24
2022-10-30T07:26:11.690Z,76.78
2022-10-30T07:31:57.623Z,74.49
2022-10-30T07:37:15.233Z,72.93
2022-10-30T07:42:47.015Z,73.20
2022-10-30T07:48:18.759Z,73.60
2022-10-30T07:53:50.665Z,72.68
2022-10-30T07:59:22.377Z,72.31
2022-10-30T08:04:54.200Z,70.40
2022-10-30T08:10:26.080Z,70.59
2022-10-30T08:15:57.819Z,70.54
2022-10-30T08:21:29.508Z,68.33
2022-10-30T08:27:01.442Z,67.47
2022-10-30T08:32:33.063Z,67.97
2022-10-30T08:38:04.797Z,67.11
2022-10-30T08:43:36.562Z,67.27
2022-10-30T08:49:08.212Z,66.92
2022-10-30T08:54:40.201Z,68.25
2022-10-30T09:05:41.424Z,64.42
2022-10-30T09:11:13.188Z,66.55
2022-10-30T09:16:45.074Z,66.95
2022-10-30T09:22:17.083Z,68.25
2022-10-30T09:27:48.765Z,66.23
2022-10-30T09:33:20.443Z,66.65
2022-10-30T09:38:52.239Z,67.39
2022-10-30T09:44:24.069Z,66.76
2022-10-30T09:49:55.962Z,66.80
2022-10-30T09:55:27.625Z,66.75
2022-10-30T10:01:03.063Z,66.77
2022-10-30T10:06:31.245Z,65.73
2022-10-30T10:12:03.109Z,65.54
2022-10-30T10:17:34.820Z,64.79
2022-10-30T10:23:06.818Z,65.11
2022-10-30T10:28:38.829Z,65.03
2022-10-30T10:34:10.722Z,63.36
2022-10-30T10:39:42.244Z,64.54
2022-10-30T10:45:13.987Z,62.75
2022-10-30T10:50:45.950Z,63.41
2022-10-30T10:56:19.499Z,61.73
2022-10-30T11:01:51.938Z,60.56
2022-10-30T11:04:14.156Z,61.33
2022-10-30T11:09:45.973Z,59.71
2022-10-30T11:15:17.512Z,60.49
2022-10-30T11:20:49.353Z,59.87
2022-10-30T11:26:21.098Z,57.96
2022-10-30T11:31:52.613Z,58.43
2022-10-30T11:37:24.391Z,58.19
2022-10-30T11:42:56.446Z,57.97
2022-10-30T11:48:28.034Z,54.42
2022-10-30T11:53:59.750Z,55.65
2022-10-30T11:59:31.836Z,54.58
2022-10-30T12:05:03.580Z,52.76
2022-10-30T12:10:36.682Z,53.63
2022-10-30T12:18:30.268Z,57.15
2022-10-30T12:24:01.722Z,54.91
2022-10-30T12:30:02.501Z,54.32
2022-10-30T12:35:05.330Z,55.87
2022-10-30T12:40:37.480Z,54.57
2022-10-30T12:46:09.255Z,55.52
2022-10-30T13:02:39.909Z,52.93
2022-10-30T13:08:11.689Z,55.99
2022-10-30T13:13:43.516Z,54.37
2022-10-30T13:19:15.144Z,55.27
2022-10-30T13:24:46.866Z,54.65
2022-10-30T13:30:18.711Z,54.98
2022-10-30T13:35:50.660Z,55.87
2022-10-30T13:41:22.133Z,57.03
2022-10-30T13:46:55.392Z,57.61
2022-10-30T13:52:27.253Z,56.36
2022-10-30T13:57:58.854Z,56.23
2022-10-30T14:03:31.027Z,55.70
2022-10-30T14:09:03.167Z,54.78
2022-10-30T14:14:34.852Z,54.27
2022-10-30T14:20:12.522Z,54.68
2022-10-30T14:25:38.181Z,54.07
2022-10-30T14:36:39.355Z,56.19
2022-10-30T14:42:11.097Z,57.37
2022-10-30T14:50:04.393Z,57.85
2022-10-30T14:55:36.221Z,57.99
2022-10-30T15:01:08.018Z,59.09
2022-10-30T15:06:39.810Z,59.74
2022-10-30T15:23:10.158Z,59.64
2022-10-30T15:28:41.957Z,61.11
2022-10-30T15:34:14.195Z,61.28
2022-10-30T15:39:45.550Z,62.74
2022-10-30T15:45:17.272Z,63.03
2022-10-30T15:56:20.061Z,63.16
2022-10-30T16:01:50.325Z,62.91
2022-10-30T16:07:22.181Z,64.34
2022-10-30T16:31:44.096Z,68.26
2022-10-30T16:37:16.068Z,68.28
2022-10-30T16:53:49.205Z,68.50
2022-10-30T16:59:20.757Z,68.99
2022-10-30T17:04:55.405Z,70.60
2022-10-30T17:10:24.219Z,70.56
2022-10-30T17:21:25.332Z,72.27
2022-10-30T17:34:47.467Z,72.78
2022-10-30T17:56:03.628Z,74.05
2022-10-30T18:01:37.415Z,75.39
2022-10-30T18:07:09.012Z,74.62
2022-10-30T18:12:41.097Z,75.12
2022-10-30T18:18:12.843Z,75.11
2022-10-30T18:26:05.013Z,75.36
2022-10-30T18:31:36.945Z,76.38
2022-10-30T18:37:08.666Z,76.46
2022-10-30T18:42:40.621Z,76.45
2022-10-30T18:48:12.742Z,78.45
2022-10-30T18:53:44.673Z,78.00
2022-10-30T18:59:16.914Z,78.29
2022-10-30T19:04:48.570Z,78.71
2022-10-30T19:10:20.094Z,77.36
2022-10-30T19:15:54.800Z,77.96
2022-10-30T19:21:23.672Z,79.28
2022-10-30T19:26:55.566Z,79.79
2022-10-30T19:34:47.219Z,79.86
2022-10-30T19:40:19.028Z,80.59
2022-10-30T19:45:52.872Z,80.34
2022-10-30T19:51:22.545Z,79.75
2022-10-30T19:56:54.492Z,81.43
2022-10-30T20:02:26.485Z,81.65
2022-10-30T20:07:58.442Z,82.51
2022-10-30T20:13:29.750Z,81.37
2022-10-30T20:19:01.504Z,82.06
2022-10-30T20:24:33.003Z,79.27
2022-10-30T20:30:04.660Z,80.59
2022-10-30T20:35:36.611Z,81.73
2022-10-30T20:41:08.034Z,81.86
2022-10-30T20:46:39.644Z,82.05
2022-10-30T20:52:11.833Z,83.56
2022-10-30T20:57:43.660Z,83.86
2022-10-30T21:03:15.421Z,84.33
2022-10-30T21:08:47.061Z,84.24
2022-10-30T21:14:18.656Z,83.51
2022-10-30T21:19:50.183Z,83.20
2022-10-30T21:25:21.875Z,83.26
2022-10-30T21:30:54.027Z,84.25
2022-10-30T21:36:25.284Z,83.74
2022-10-30T21:41:56.866Z,83.49
2022-10-30T21:47:28.417Z,83.79
2022-10-30T21:53:00.079Z,84.96
2022-10-30T21:58:31.660Z,85.02
2022-10-30T22:04:03.329Z,84.84
2022-10-30T22:09:35.105Z,85.87
2022-10-30T22:15:06.798Z,86.06
2022-10-30T22:20:38.651Z,85.44
2022-10-30T22:26:10.374Z,85.68
2022-10-30T22:31:42.189Z,86.29
2022-10-30T22:37:13.703Z,86.38
2022-10-30T22:42:45.652Z,86.84
2022-10-30T22:48:17.321Z,86.45
2022-10-30T22:50:41.163Z,85.53
2022-10-30T22:56:12.671Z,85.38
2022-10-30T23:01:44.537Z,86.42
2022-10-30T23:07:16.156Z,86.23
2022-10-30T23:12:47.916Z,86.44
2022-10-30T23:18:19.840Z,87.15
2022-10-30T23:23:51.579Z,86.82
2022-10-30T23:29:23.285Z,86.00
2022-10-30T23:34:55.135Z,86.06
2022-10-30T23:40:26.916Z,86.41
2022-10-30T23:45:58.481Z,86.04
2022-10-30T23:51:30.274Z,85.79
2022-10-30T23:57:01.867Z,85.65
